Florien, Louisiana
Current Conditions -  °F | °C
As of 3:56 AM on Saturday 29 Nov 2014 (Local Time) from KAQV Reporting Station
Overcast Overcast  
Wind Chill: 59°   Ceiling: 800
Heat Index: 59°   Visibility: 10mi
Dew Point: 56°   Wind: 6mph
Humidity: 90%   Direction: NA
Pressure: 30.09"   Gusts: NA
Location:  31.44°N, 93.46°W
Report Text: KAQV 290956Z AUTO VRB05KT 10SM BKN008 OVC032 15/13 A3009 RMK AO2 CIG 006V012 SLP188 T01500133
Loading
Personal Weather Stations






























Interactive Weather Map New forecast layout! Learn more

10-Day Weather Forecast

Advertisements
Track Severe Weather on mobile